createdAt,value
2018-04-23T00:01:48.638Z,4.93
2018-04-23T00:04:15.127Z,4.60
2018-04-23T00:06:41.517Z,5.13
2018-04-23T00:09:08.051Z,5.03
2018-04-23T00:11:34.579Z,5.53
2018-04-23T00:14:01.146Z,5.47
2018-04-23T00:16:27.689Z,4.77
2018-04-23T00:18:54.228Z,5.87
2018-04-23T00:21:20.706Z,4.93
2018-04-23T00:23:47.179Z,5.20
2018-04-23T00:26:13.624Z,5.20
2018-04-23T00:28:40.211Z,4.90
2018-04-23T00:31:06.769Z,4.40
2018-04-23T00:33:33.168Z,5.13
2018-04-23T00:35:59.680Z,5.10
2018-04-23T00:38:26.028Z,4.80
2018-04-23T00:40:52.616Z,4.80
2018-04-23T00:43:19.097Z,4.50
2018-04-23T00:45:45.518Z,4.53
2018-04-23T00:48:11.908Z,4.97
2018-04-23T00:50:38.397Z,5.00
2018-04-23T00:53:17.068Z,4.80
2018-04-23T00:55:43.478Z,4.97
2018-04-23T00:58:09.936Z,5.20
2018-04-23T01:00:36.344Z,4.63
2018-04-23T01:03:02.799Z,4.90
2018-04-23T01:05:29.323Z,5.10
2018-04-23T01:07:55.864Z,4.83
2018-04-23T01:10:22.313Z,4.57
2018-04-23T01:12:48.854Z,4.53
2018-04-23T01:15:15.427Z,5.50
2018-04-23T01:17:41.889Z,5.30
2018-04-23T01:20:08.567Z,4.80
2018-04-23T01:22:35.150Z,5.37
2018-04-23T01:25:01.680Z,4.77
2018-04-23T01:27:28.180Z,5.37
2018-04-23T01:29:54.645Z,5.30
2018-04-23T01:32:21.067Z,5.83
2018-04-23T01:34:47.497Z,5.07
2018-04-23T01:37:14.081Z,4.90
2018-04-23T01:39:40.505Z,4.87
2018-04-23T01:42:07.167Z,4.63
2018-04-23T01:44:33.620Z,4.60
2018-04-23T01:47:00.040Z,4.20
2018-04-23T01:49:26.636Z,4.83
2018-04-23T01:51:53.161Z,4.60
2018-04-23T01:54:19.551Z,4.13
2018-04-23T01:56:46.020Z,4.53
2018-04-23T01:59:12.488Z,4.90
2018-04-23T02:01:38.923Z,4.47
2018-04-23T02:04:05.427Z,4.13
2018-04-23T02:06:31.853Z,4.73
2018-04-23T02:08:58.320Z,4.85
2018-04-23T02:11:24.768Z,5.00
2018-04-23T02:13:51.316Z,4.70
2018-04-23T02:16:17.939Z,5.40
2018-04-23T02:18:44.509Z,5.50
2018-04-23T02:21:11.008Z,4.93
2018-04-23T02:23:37.461Z,5.13
2018-04-23T02:26:04.059Z,4.97
2018-04-23T02:28:30.474Z,4.80
2018-04-23T02:30:56.949Z,5.00
2018-04-23T02:33:23.451Z,5.03
2018-04-23T02:35:49.956Z,5.60
2018-04-23T02:38:16.479Z,5.07
2018-04-23T02:40:43.057Z,5.30
2018-04-23T02:43:09.476Z,5.10
2018-04-23T02:45:35.928Z,5.00
2018-04-23T02:48:02.501Z,4.22
2018-04-23T02:50:29.160Z,4.47
2018-04-23T02:52:55.723Z,4.60
2018-04-23T02:55:22.194Z,4.90
2018-04-23T02:57:48.578Z,4.53
2018-04-23T03:00:15.053Z,4.55
2018-04-23T03:02:41.624Z,5.12
2018-04-23T03:05:08.029Z,4.30
2018-04-23T03:07:34.492Z,4.30
2018-04-23T03:10:00.969Z,4.62
2018-04-23T03:12:27.409Z,5.00
2018-04-23T03:14:53.968Z,4.30
2018-04-23T03:17:20.446Z,4.82
2018-04-23T03:19:46.995Z,4.65
2018-04-23T03:22:13.526Z,4.45
2018-04-23T03:24:40.056Z,4.80
2018-04-23T03:27:06.579Z,5.10
2018-04-23T03:29:33.118Z,4.87
2018-04-23T03:31:59.624Z,4.93
2018-04-23T03:34:26.058Z,5.50
2018-04-23T03:36:52.663Z,5.00
2018-04-23T03:39:19.261Z,5.57
2018-04-23T03:41:45.682Z,5.28
2018-04-23T03:44:12.213Z,5.28
2018-04-23T03:46:38.753Z,4.82
2018-04-23T03:49:05.183Z,5.95
2018-04-23T03:51:31.660Z,5.40
2018-04-23T03:53:58.209Z,6.00
2018-04-23T03:56:24.748Z,6.28
2018-04-23T03:58:51.324Z,4.70
2018-04-23T04:01:17.817Z,5.72
2018-04-23T04:03:44.399Z,6.18
2018-04-23T04:06:10.882Z,5.47
2018-04-23T04:08:37.300Z,6.00
2018-04-23T04:11:03.796Z,5.85
2018-04-23T04:13:42.281Z,8.93
2018-04-23T04:16:20.807Z,16.75
2018-04-23T04:18:47.260Z,13.98
2018-04-23T04:21:13.774Z,18.55
2018-04-23T04:23:40.227Z,16.52
2018-04-23T04:26:06.740Z,15.23
2018-04-23T04:28:33.175Z,11.90
2018-04-23T04:30:59.639Z,9.20
2018-04-23T04:33:26.107Z,8.55
2018-04-23T04:35:52.543Z,7.65
2018-04-23T04:38:19.067Z,8.25
2018-04-23T04:40:45.639Z,7.32
2018-04-23T04:43:12.113Z,8.85
2018-04-23T04:45:38.661Z,8.23
2018-04-23T04:48:05.124Z,8.35
2018-04-23T04:50:31.532Z,8.98
2018-04-23T04:52:58.250Z,9.75
2018-04-23T04:55:24.824Z,10.97
2018-04-23T04:57:51.317Z,16.98
2018-04-23T05:00:17.773Z,21.25
2018-04-23T05:02:44.255Z,26.37
2018-04-23T05:05:10.841Z,33.73
2018-04-23T05:07:37.324Z,32.80
2018-04-23T05:10:03.890Z,22.10
2018-04-23T05:12:30.324Z,21.90
2018-04-23T05:14:56.847Z,24.63
2018-04-23T05:17:23.268Z,22.43
2018-04-23T05:19:49.819Z,15.97
2018-04-23T05:22:16.251Z,11.13
2018-04-23T05:24:42.745Z,9.30
2018-04-23T05:27:09.228Z,9.30
2018-04-23T05:29:35.804Z,9.83
2018-04-23T05:32:02.326Z,10.10
2018-04-23T05:34:28.728Z,10.00
2018-04-23T05:36:55.242Z,8.70
2018-04-23T05:39:21.807Z,8.23
2018-04-23T05:41:48.359Z,8.37
2018-04-23T05:44:14.768Z,9.07
2018-04-23T05:46:41.340Z,8.00
2018-04-23T05:49:07.828Z,6.97
2018-04-23T05:51:34.305Z,7.03
2018-04-23T05:54:00.905Z,6.83
2018-04-23T05:56:27.483Z,6.23
2018-04-23T05:58:54.004Z,7.73
2018-04-23T06:01:20.523Z,6.20
2018-04-23T06:03:46.996Z,5.43
2018-04-23T06:06:13.666Z,6.07
2018-04-23T06:08:40.317Z,5.30
2018-04-23T06:11:06.776Z,5.27
2018-04-23T06:13:33.280Z,6.07
2018-04-23T06:15:59.766Z,6.00
2018-04-23T06:18:26.216Z,6.37
2018-04-23T06:20:52.716Z,6.63
2018-04-23T06:23:19.197Z,7.63
2018-04-23T06:25:45.675Z,6.77
2018-04-23T06:28:12.266Z,7.53
2018-04-23T06:30:38.794Z,7.87
2018-04-23T06:33:05.263Z,7.27
2018-04-23T06:35:31.640Z,7.40
2018-04-23T06:37:58.115Z,7.97
2018-04-23T06:40:24.632Z,7.27
2018-04-23T06:42:51.102Z,7.80
2018-04-23T06:45:17.568Z,7.53
2018-04-23T06:47:44.161Z,7.37
2018-04-23T06:50:10.633Z,8.47
2018-04-23T06:52:36.973Z,7.70
2018-04-23T06:55:03.540Z,7.60
2018-04-23T06:57:30.055Z,8.00
2018-04-23T06:59:56.586Z,7.47
2018-04-23T07:02:23.089Z,7.97
2018-04-23T07:04:49.593Z,7.00
2018-04-23T07:07:16.174Z,7.33
2018-04-23T07:09:42.785Z,6.87
2018-04-23T07:12:09.357Z,7.33
2018-04-23T07:14:35.850Z,7.10
2018-04-23T07:17:02.461Z,5.80
2018-04-23T07:19:35.788Z,6.33
2018-04-23T07:22:02.301Z,5.57
2018-04-23T07:24:28.757Z,5.77
2018-04-23T07:26:55.240Z,5.63
2018-04-23T07:29:21.643Z,6.03
2018-04-23T07:31:48.186Z,5.87
2018-04-23T07:34:14.720Z,5.37
2018-04-23T07:36:41.270Z,5.80
2018-04-23T07:39:07.788Z,5.23
2018-04-23T07:41:34.215Z,5.00
2018-04-23T07:44:00.724Z,4.77
2018-04-23T07:46:27.133Z,4.87
2018-04-23T07:48:53.627Z,4.87
2018-04-23T07:51:20.043Z,4.63
2018-04-23T07:53:46.597Z,4.33
2018-04-23T07:56:13.200Z,4.33
2018-04-23T07:58:39.689Z,4.80
2018-04-23T08:01:06.187Z,4.60
2018-04-23T08:03:32.655Z,4.70
2018-04-23T08:05:59.213Z,5.97
2018-04-23T08:08:25.718Z,5.00
2018-04-23T08:10:52.179Z,5.03
2018-04-23T08:13:18.722Z,5.03
2018-04-23T08:15:45.291Z,4.17
2018-04-23T08:18:11.888Z,4.27
2018-04-23T08:20:38.396Z,4.20
2018-04-23T08:23:04.833Z,6.47
2018-04-23T08:25:31.299Z,4.93
2018-04-23T08:27:57.905Z,4.20
2018-04-23T08:30:24.513Z,4.20
2018-04-23T08:32:51.230Z,4.63
2018-04-23T08:35:17.736Z,4.57
2018-04-23T08:37:44.230Z,3.80
2018-04-23T08:40:10.720Z,3.10
2018-04-23T08:42:37.209Z,3.33
2018-04-23T08:45:03.691Z,2.60
2018-04-23T08:47:30.332Z,3.13
2018-04-23T08:49:56.828Z,4.70
2018-04-23T08:52:23.372Z,5.70
2018-04-23T08:54:49.861Z,4.07
2018-04-23T08:57:16.333Z,3.40
2018-04-23T08:59:42.848Z,6.93
2018-04-23T09:02:09.366Z,4.43
2018-04-23T09:04:35.856Z,3.80
2018-04-23T09:07:02.377Z,3.53
2018-04-23T09:09:28.812Z,2.87
2018-04-23T09:11:55.435Z,3.60
2018-04-23T09:14:22.150Z,3.50
2018-04-23T09:16:48.557Z,7.70
2018-04-23T09:19:15.070Z,39.93
2018-04-23T09:21:41.648Z,40.87
2018-04-23T09:24:08.194Z,4.00
2018-04-23T09:26:34.709Z,4.97
2018-04-23T09:29:01.189Z,4.40
2018-04-23T09:31:27.658Z,3.47
2018-04-23T09:33:54.085Z,3.00
2018-04-23T09:36:20.597Z,3.10
2018-04-23T09:38:47.068Z,2.50
2018-04-23T09:41:13.532Z,2.60
2018-04-23T09:43:39.989Z,2.50
2018-04-23T09:46:06.402Z,3.07
2018-04-23T09:48:32.979Z,4.33
2018-04-23T09:50:59.455Z,3.23
2018-04-23T09:53:25.895Z,2.77
2018-04-23T09:55:52.364Z,3.47
2018-04-23T09:58:18.873Z,3.33
2018-04-23T10:00:45.359Z,2.63
2018-04-23T10:03:11.986Z,2.80
2018-04-23T10:05:38.402Z,4.17
2018-04-23T10:08:04.875Z,2.53
2018-04-23T10:10:31.420Z,3.00
2018-04-23T10:12:58.022Z,21.60
2018-04-23T10:15:24.442Z,3.03
2018-04-23T10:17:50.869Z,3.40
2018-04-23T10:20:17.324Z,7.17
2018-04-23T10:22:43.835Z,5.50
2018-04-23T10:25:10.267Z,4.80
2018-04-23T10:27:36.828Z,2.70
2018-04-23T10:30:03.505Z,2.50
2018-04-23T10:32:30.028Z,2.73
2018-04-23T10:34:56.517Z,2.53
2018-04-23T10:37:23.068Z,2.33
2018-04-23T10:39:49.639Z,2.60
2018-04-23T10:42:16.228Z,2.93
2018-04-23T10:44:42.628Z,3.03
2018-04-23T10:47:09.157Z,3.83
2018-04-23T10:49:35.663Z,2.67
2018-04-23T10:52:02.153Z,2.30
2018-04-23T10:54:28.674Z,2.47
2018-04-23T10:56:55.226Z,2.70
2018-04-23T10:59:21.705Z,2.93
2018-04-23T11:01:48.247Z,2.80
2018-04-23T11:04:14.752Z,2.87
2018-04-23T11:06:41.273Z,3.30
2018-04-23T11:09:07.886Z,3.60
2018-04-23T11:11:34.474Z,3.80
2018-04-23T11:14:01.524Z,3.10
2018-04-23T11:16:28.117Z,3.20
2018-04-23T11:18:54.557Z,3.57
2018-04-23T11:21:21.078Z,2.57
2018-04-23T11:23:47.520Z,2.50
2018-04-23T11:26:14.078Z,22.57
2018-04-23T11:28:40.552Z,5.37
2018-04-23T11:31:07.149Z,6.03
2018-04-23T11:33:33.676Z,4.60
2018-04-23T11:36:00.272Z,4.37
2018-04-23T11:38:26.684Z,2.57
2018-04-23T11:40:53.104Z,2.40
2018-04-23T11:52:08.698Z,2.57
2018-04-23T11:54:35.273Z,3.20
2018-04-23T11:57:01.759Z,2.47
2018-04-23T11:59:28.312Z,2.27
2018-04-23T12:01:54.820Z,2.40
2018-04-23T12:04:21.282Z,2.60
2018-04-23T12:06:47.775Z,2.80
2018-04-23T12:09:14.239Z,3.03
2018-04-23T12:11:40.726Z,2.80
2018-04-23T12:14:07.272Z,3.30
2018-04-23T12:16:33.813Z,3.73
2018-04-23T12:19:00.313Z,2.90
2018-04-23T12:21:26.826Z,2.50
2018-04-23T12:23:53.331Z,2.73
2018-04-23T12:26:19.970Z,2.80
2018-04-23T12:37:06.934Z,3.30
2018-04-23T12:39:33.475Z,2.50
2018-04-23T12:41:59.911Z,2.97
2018-04-23T12:44:26.489Z,3.20
2018-04-23T12:46:53.006Z,3.43
2018-04-23T12:49:19.510Z,3.03
2018-04-23T12:51:46.013Z,3.60
2018-04-23T12:54:12.459Z,5.90
2018-04-23T12:56:38.858Z,4.93
2018-04-23T12:59:05.354Z,3.70
2018-04-23T13:01:31.885Z,3.10
2018-04-23T13:03:58.404Z,3.30
2018-04-23T13:06:24.853Z,5.70
2018-04-23T13:08:51.396Z,2.33
2018-04-23T13:11:17.900Z,2.70
2018-04-23T13:13:44.515Z,2.70
2018-04-23T13:16:10.958Z,2.40
2018-04-23T13:18:37.408Z,2.43
2018-04-23T13:21:03.991Z,2.57
2018-04-23T13:23:30.510Z,2.80
2018-04-23T13:25:57.036Z,2.80
2018-04-23T13:28:23.479Z,2.90
2018-04-23T13:30:50.010Z,3.00
2018-04-23T13:33:16.518Z,3.07
2018-04-23T13:35:43.012Z,2.90
2018-04-23T13:38:09.594Z,2.67
2018-04-23T13:40:35.971Z,2.73
2018-04-23T13:43:02.457Z,2.40
2018-04-23T13:45:28.953Z,2.60
2018-04-23T13:47:55.521Z,2.30
2018-04-23T13:50:22.095Z,2.53
2018-04-23T13:52:48.750Z,2.57
2018-04-23T13:55:15.292Z,2.53
2018-04-23T13:57:41.789Z,2.53
2018-04-23T14:00:08.282Z,2.23
2018-04-23T14:02:34.755Z,2.27
2018-04-23T14:05:01.297Z,2.63
2018-04-23T14:07:27.749Z,2.60
2018-04-23T14:09:54.142Z,3.20
2018-04-23T14:12:20.652Z,3.27
2018-04-23T14:14:47.133Z,3.30
2018-04-23T14:17:13.636Z,3.23
2018-04-23T14:19:40.236Z,3.20
2018-04-23T14:22:06.769Z,3.30
2018-04-23T14:24:33.248Z,3.17
2018-04-23T14:27:00.049Z,3.77
2018-04-23T14:29:26.625Z,3.20
2018-04-23T14:31:53.011Z,4.13
2018-04-23T14:34:19.583Z,3.40
2018-04-23T14:36:46.017Z,4.47
2018-04-23T14:39:12.926Z,4.33
2018-04-23T14:41:39.427Z,2.50
2018-04-23T14:44:05.999Z,3.13
2018-04-23T14:46:32.600Z,3.57
2018-04-23T14:48:59.017Z,4.30
2018-04-23T14:51:25.419Z,2.37
2018-04-23T14:53:51.844Z,2.83
2018-04-23T14:56:18.317Z,3.80
2018-04-23T14:58:45.062Z,4.60
2018-04-23T15:01:11.535Z,8.73
2018-04-23T15:03:37.972Z,3.17
2018-04-23T15:06:04.421Z,3.93
2018-04-23T15:08:30.961Z,3.10
2018-04-23T15:10:57.416Z,3.80
2018-04-23T15:13:24.074Z,3.13
2018-04-23T15:15:50.651Z,3.40
2018-04-23T15:18:17.130Z,3.00
2018-04-23T15:20:43.604Z,2.90
2018-04-23T15:23:10.115Z,3.50
2018-04-23T15:25:36.680Z,4.07
2018-04-23T15:28:03.253Z,4.63
2018-04-23T15:30:29.744Z,3.63
2018-04-23T15:32:56.128Z,3.30
2018-04-23T15:35:22.622Z,2.63
2018-04-23T15:37:49.121Z,3.03
2018-04-23T15:40:15.641Z,3.30
2018-04-23T15:42:42.107Z,3.40
2018-04-23T15:45:08.586Z,3.20
2018-04-23T15:47:35.037Z,3.27
2018-04-23T15:50:01.492Z,3.03
2018-04-23T15:52:28.026Z,3.50
2018-04-23T15:54:55.980Z,3.80
2018-04-23T15:57:22.424Z,3.43
2018-04-23T16:00:03.723Z,3.33
2018-04-23T16:02:30.184Z,3.50
2018-04-23T16:04:56.695Z,3.83
2018-04-23T16:07:23.172Z,3.93
2018-04-23T16:20:37.023Z,3.70
2018-04-23T16:23:03.793Z,2.90
2018-04-23T16:25:30.422Z,4.20
2018-04-23T16:27:57.239Z,3.07
2018-04-23T16:30:23.717Z,3.33
2018-04-23T16:32:50.100Z,3.83
2018-04-23T16:35:16.833Z,2.83
2018-04-23T16:37:43.384Z,3.53
2018-04-23T16:40:09.849Z,3.60
2018-04-23T16:42:36.641Z,3.37
2018-04-23T16:45:03.583Z,3.90
2018-04-23T16:47:29.966Z,3.60
2018-04-23T16:49:56.492Z,3.97
2018-04-23T16:52:22.992Z,3.27
2018-04-23T16:54:49.456Z,9.00
2018-04-23T16:57:15.980Z,7.43
2018-04-23T16:59:42.576Z,6.03
2018-04-23T17:02:09.001Z,4.93
2018-04-23T17:04:35.516Z,6.83
2018-04-23T17:07:01.917Z,4.93
2018-04-23T17:09:28.351Z,7.33
2018-04-23T17:11:54.930Z,7.37
2018-04-23T17:14:21.438Z,5.60
2018-04-23T17:16:47.829Z,3.70
2018-04-23T17:19:14.472Z,3.80
2018-04-23T17:21:40.887Z,6.57
2018-04-23T17:24:07.471Z,10.17
2018-04-23T17:26:33.888Z,9.20
2018-04-23T17:29:00.342Z,6.57
2018-04-23T17:31:26.745Z,5.00
2018-04-23T17:33:53.232Z,5.37
2018-04-23T17:36:19.792Z,5.30
2018-04-23T17:38:46.197Z,6.47
2018-04-23T17:41:12.681Z,7.03
2018-04-23T17:43:39.180Z,5.57
2018-04-23T17:46:05.607Z,6.13
2018-04-23T17:48:32.035Z,5.27
2018-04-23T17:50:58.637Z,5.37
2018-04-23T17:53:25.088Z,8.23
2018-04-23T17:55:51.432Z,8.90
2018-04-23T17:58:17.838Z,7.73
2018-04-23T18:00:44.427Z,5.70
2018-04-23T18:03:10.744Z,5.23
2018-04-23T18:05:37.220Z,5.03
2018-04-23T18:08:03.753Z,5.60
2018-04-23T18:13:17.931Z,5.70
2018-04-23T18:15:44.464Z,5.10
2018-04-23T18:18:10.997Z,16.43
2018-04-23T18:20:37.379Z,14.23
2018-04-23T18:23:03.808Z,16.53
2018-04-23T18:25:30.357Z,11.70
2018-04-23T18:27:56.739Z,12.57
2018-04-23T18:30:23.146Z,14.73
2018-04-23T18:32:49.618Z,13.33
2018-04-23T18:35:16.024Z,10.33
2018-04-23T18:37:42.595Z,10.73
2018-04-23T18:40:09.132Z,10.40
2018-04-23T18:42:35.558Z,13.60
2018-04-23T18:45:02.244Z,12.10
2018-04-23T18:47:28.749Z,10.87
2018-04-23T18:49:55.222Z,10.27
2018-04-23T18:52:21.721Z,7.70
2018-04-23T18:54:48.137Z,8.87
2018-04-23T18:57:14.570Z,7.53
2018-04-23T18:59:40.992Z,7.77
2018-04-23T19:02:07.433Z,8.07
2018-04-23T19:04:33.923Z,7.03
2018-04-23T19:07:00.388Z,17.97
2018-04-23T19:09:26.868Z,10.63
2018-04-23T19:12:00.369Z,7.83
2018-04-23T19:14:27.732Z,8.43
2018-04-23T19:16:54.213Z,6.60
2018-04-23T19:19:20.734Z,5.97
2018-04-23T19:21:47.249Z,6.53
2018-04-23T19:24:13.671Z,6.63
2018-04-23T19:26:40.070Z,6.40
2018-04-23T19:29:06.698Z,6.37
2018-04-23T19:31:33.125Z,5.37
2018-04-23T19:33:59.488Z,6.03
2018-04-23T19:36:26.071Z,6.50
2018-04-23T19:38:52.584Z,6.17
2018-04-23T19:41:19.109Z,5.10
2018-04-23T19:43:45.670Z,5.47
2018-04-23T19:46:12.139Z,8.53
2018-04-23T19:48:38.759Z,5.57
2018-04-23T19:51:05.268Z,6.20
2018-04-23T19:53:31.701Z,5.50
2018-04-23T19:55:58.179Z,6.00
2018-04-23T19:58:24.611Z,5.53
2018-04-23T20:00:51.036Z,6.10
2018-04-23T20:03:17.543Z,5.57
2018-04-23T20:05:43.972Z,5.57
2018-04-23T20:08:10.553Z,6.27
2018-04-23T20:10:36.894Z,5.63
2018-04-23T20:13:03.352Z,5.50
2018-04-23T20:15:29.876Z,5.60
2018-04-23T20:17:56.286Z,5.50
2018-04-23T20:20:22.684Z,6.60
2018-04-23T20:22:49.121Z,5.80
2018-04-23T20:25:15.572Z,6.30
2018-04-23T20:27:42.049Z,5.97
2018-04-23T20:30:08.429Z,6.47
2018-04-23T20:32:34.843Z,6.03
2018-04-23T20:35:01.321Z,5.77
2018-04-23T20:37:27.711Z,6.23
2018-04-23T20:39:54.278Z,5.20
2018-04-23T20:42:20.633Z,6.20
2018-04-23T20:44:47.007Z,6.37
2018-04-23T20:47:13.434Z,6.87
2018-04-23T20:49:39.949Z,6.67
2018-04-23T20:52:06.351Z,6.30
2018-04-23T20:54:32.680Z,7.03
2018-04-23T20:56:59.213Z,6.10
2018-04-23T20:59:25.874Z,5.57
2018-04-23T21:01:52.307Z,5.83
2018-04-23T21:04:18.833Z,5.90
2018-04-23T21:06:45.328Z,5.40
2018-04-23T21:09:11.858Z,5.90
2018-04-23T21:11:38.379Z,4.70
2018-04-23T21:14:04.852Z,5.67
2018-04-23T21:16:31.345Z,5.07
2018-04-23T21:18:57.776Z,5.77
2018-04-23T21:21:24.127Z,5.33
2018-04-23T21:23:50.681Z,6.70
2018-04-23T21:26:17.499Z,6.70
2018-04-23T21:28:43.916Z,5.60
2018-04-23T21:31:10.358Z,5.23
2018-04-23T21:33:36.746Z,5.70
2018-04-23T21:36:03.205Z,5.63
2018-04-23T21:38:29.601Z,5.40
2018-04-23T21:40:55.919Z,6.03
2018-04-23T21:43:22.281Z,5.67
2018-04-23T21:45:48.813Z,5.23
2018-04-23T21:48:15.276Z,5.40
2018-04-23T21:50:41.581Z,5.93
2018-04-23T21:53:08.068Z,4.90
2018-04-23T21:55:34.464Z,5.00
2018-04-23T21:58:00.840Z,4.80
2018-04-23T22:00:27.222Z,5.47
2018-04-23T22:02:53.723Z,5.20
2018-04-23T22:05:20.465Z,5.13
2018-04-23T22:07:46.785Z,4.97
2018-04-23T22:10:13.163Z,5.30
2018-04-23T22:12:39.611Z,5.90
2018-04-23T22:15:06.100Z,5.43
2018-04-23T22:17:32.644Z,5.80
2018-04-23T22:19:59.095Z,5.10
2018-04-23T22:22:25.627Z,4.80
2018-04-23T22:24:51.999Z,5.80
2018-04-23T22:27:18.468Z,5.33
2018-04-23T22:29:44.861Z,5.37
2018-04-23T22:32:11.434Z,5.00
2018-04-23T22:34:37.840Z,5.37
2018-04-23T22:37:04.233Z,5.50
2018-04-23T22:39:30.713Z,5.43
2018-04-23T22:41:57.157Z,5.53
2018-04-23T22:44:23.597Z,5.83
2018-04-23T22:46:50.015Z,5.57
2018-04-23T22:49:16.393Z,5.43
2018-04-23T22:51:42.789Z,6.20
2018-04-23T22:54:09.252Z,5.30
2018-04-23T22:56:35.820Z,5.90
2018-04-23T22:59:02.170Z,5.23
2018-04-23T23:01:28.643Z,5.33
2018-04-23T23:17:52.341Z,6.73
2018-04-23T23:20:18.864Z,5.53
2018-04-23T23:22:45.377Z,5.70
2018-04-23T23:25:11.938Z,6.70
2018-04-23T23:27:38.465Z,5.97
2018-04-23T23:30:05.069Z,7.20
2018-04-23T23:32:31.687Z,6.40
2018-04-23T23:34:58.263Z,6.10
2018-04-23T23:37:24.924Z,5.13
2018-04-23T23:39:51.473Z,5.40
2018-04-23T23:42:18.137Z,5.60
2018-04-23T23:44:44.683Z,5.47
2018-04-23T23:47:11.365Z,5.67
2018-04-23T23:49:37.961Z,5.80
2018-04-23T23:52:04.516Z,5.40
2018-04-23T23:54:31.047Z,5.50
2018-04-23T23:56:57.607Z,5.43
2018-04-23T23:59:24.134Z,5.53
